Rechercher aéroport 
image banner adimage banner adimage banner ad
image banner ad

2CN7 - Qualcomm Building N

Situé à San Diego, United States

ICAO - 2CN7, IATA -

Données fournies par Airmate  

Information générale

Coordonnées: N32°53'46" W117°11'46"
Élévation : 486 feet MSL.
 
Voir autres Aéroports à California

Données opérationnelles

Special qualification required
Heure actuelle UTC:
Heure actuelle locale:
Météo à : KNKX - Miramar Mcas ( 6 km )
METAR: KNKX 251638Z 00000KT 10SM OVC015 22/17 A3000 RMK AO2 T02170167 $
TAF: TAF KNKX 2515/2615 VRB05KT 9999 BKN011 QNH2995INS TEMPO 2515/2520 25008KT 9000 -RA BR SCT015 SCT100 FM252000 25008KT 9999 FEW015 SCT100 QNH2990INS BECMG 2602/2604 VRB05KT 9999 BKN011 BKN090 QNH2990INS TEMPO 2609/2615 6000 -RA BR BKN009 T25/2521Z T19/2613Z
Voir NOTAMs / SUP AIP / TFR affectant cet aéroport [VIEW]
Fréquences de communication: [VIEW]

Pistes:

Coordonnées de l'aéroport

Adresse: San Diego United States

Vue satellite de 2CN7